sensor_id;sensor_type;location;lat;lon;timestamp;P1;durP1;ratioP1;P2;durP2;ratioP2
25191;SDS011;13143;50.924;5.320;2023-02-18T00:00:37;17.25;;;12.55;;
25191;SDS011;13143;50.924;5.320;2023-02-18T00:03:03;14.40;;;12.00;;
25191;SDS011;13143;50.924;5.320;2023-02-18T00:05:29;17.27;;;12.65;;
25191;SDS011;13143;50.924;5.320;2023-02-18T00:07:54;17.13;;;12.80;;
25191;SDS011;13143;50.924;5.320;2023-02-18T00:10:20;17.10;;;12.20;;
25191;SDS011;13143;50.924;5.320;2023-02-18T00:12:45;15.10;;;12.07;;
25191;SDS011;13143;50.924;5.320;2023-02-18T00:15:11;19.10;;;12.73;;
25191;SDS011;13143;50.924;5.320;2023-02-18T00:17:37;18.75;;;12.50;;
25191;SDS011;13143;50.924;5.320;2023-02-18T00:20:04;15.98;;;12.70;;
25191;SDS011;13143;50.924;5.320;2023-02-18T00:22:31;17.80;;;13.43;;
25191;SDS011;13143;50.924;5.320;2023-02-18T00:24:57;17.77;;;12.95;;
25191;SDS011;13143;50.924;5.320;2023-02-18T00:27:23;18.00;;;13.38;;
25191;SDS011;13143;50.924;5.320;2023-02-18T00:29:48;19.23;;;14.93;;
25191;SDS011;13143;50.924;5.320;2023-02-18T00:32:14;17.73;;;13.85;;
25191;SDS011;13143;50.924;5.320;2023-02-18T00:34:39;21.85;;;15.10;;
25191;SDS011;13143;50.924;5.320;2023-02-18T00:37:05;21.08;;;14.40;;
25191;SDS011;13143;50.924;5.320;2023-02-18T00:39:31;20.27;;;14.20;;
25191;SDS011;13143;50.924;5.320;2023-02-18T00:41:56;19.95;;;14.63;;
25191;SDS011;13143;50.924;5.320;2023-02-18T00:44:22;19.20;;;14.88;;
25191;SDS011;13143;50.924;5.320;2023-02-18T00:46:48;21.15;;;15.18;;
25191;SDS011;13143;50.924;5.320;2023-02-18T00:49:13;22.95;;;16.45;;
25191;SDS011;13143;50.924;5.320;2023-02-18T00:51:39;22.25;;;16.13;;
25191;SDS011;13143;50.924;5.320;2023-02-18T00:54:05;23.33;;;16.85;;
25191;SDS011;13143;50.924;5.320;2023-02-18T00:56:31;22.33;;;16.23;;
25191;SDS011;13143;50.924;5.320;2023-02-18T00:58:56;21.67;;;15.60;;
25191;SDS011;13143;50.924;5.320;2023-02-18T01:01:22;22.98;;;15.73;;
25191;SDS011;13143;50.924;5.320;2023-02-18T01:03:48;21.67;;;15.77;;
25191;SDS011;13143;50.924;5.320;2023-02-18T01:06:14;19.85;;;14.70;;
25191;SDS011;13143;50.924;5.320;2023-02-18T01:08:40;19.48;;;14.05;;
25191;SDS011;13143;50.924;5.320;2023-02-18T01:11:06;20.92;;;14.48;;
25191;SDS011;13143;50.924;5.320;2023-02-18T01:13:33;20.50;;;15.02;;
25191;SDS011;13143;50.924;5.320;2023-02-18T01:15:59;18.77;;;14.05;;
25191;SDS011;13143;50.924;5.320;2023-02-18T01:18:25;22.02;;;13.98;;
25191;SDS011;13143;50.924;5.320;2023-02-18T01:20:52;21.17;;;14.65;;
25191;SDS011;13143;50.924;5.320;2023-02-18T01:23:17;20.45;;;13.77;;
25191;SDS011;13143;50.924;5.320;2023-02-18T01:25:43;20.75;;;13.98;;
25191;SDS011;13143;50.924;5.320;2023-02-18T01:28:10;24.73;;;15.18;;
25191;SDS011;13143;50.924;5.320;2023-02-18T01:30:37;28.55;;;15.80;;
25191;SDS011;13143;50.924;5.320;2023-02-18T01:33:03;24.25;;;15.77;;
25191;SDS011;13143;50.924;5.320;2023-02-18T01:35:29;25.02;;;15.32;;
25191;SDS011;13143;50.924;5.320;2023-02-18T01:37:54;24.52;;;15.40;;
25191;SDS011;13143;50.924;5.320;2023-02-18T01:40:22;24.85;;;15.90;;
25191;SDS011;13143;50.924;5.320;2023-02-18T01:42:51;28.33;;;16.00;;
25191;SDS011;13143;50.924;5.320;2023-02-18T01:48:20;27.58;;;17.45;;
25191;SDS011;13143;50.924;5.320;2023-02-18T01:51:18;28.17;;;17.30;;
25191;SDS011;13143;50.924;5.320;2023-02-18T01:53:55;27.50;;;16.15;;
25191;SDS011;13143;50.924;5.320;2023-02-18T01:56:28;26.88;;;16.17;;
25191;SDS011;13143;50.924;5.320;2023-02-18T01:58:58;26.77;;;15.93;;
25191;SDS011;13143;50.924;5.320;2023-02-18T02:01:26;25.05;;;15.38;;
25191;SDS011;13143;50.924;5.320;2023-02-18T02:03:54;23.90;;;14.07;;
25191;SDS011;13143;50.924;5.320;2023-02-18T02:06:20;21.67;;;12.98;;
25191;SDS011;13143;50.924;5.320;2023-02-18T02:08:47;20.15;;;10.68;;
25191;SDS011;13143;50.924;5.320;2023-02-18T02:11:23;16.08;;;9.02;;
25191;SDS011;13143;50.924;5.320;2023-02-18T02:23:00;8.27;;;5.10;;
25191;SDS011;13143;50.924;5.320;2023-02-18T02:30:55;6.13;;;4.15;;
25191;SDS011;13143;50.924;5.320;2023-02-18T02:36:25;5.22;;;3.35;;
25191;SDS011;13143;50.924;5.320;2023-02-18T02:39:13;5.43;;;3.63;;
25191;SDS011;13143;50.924;5.320;2023-02-18T02:47:01;7.18;;;3.72;;
25191;SDS011;13143;50.924;5.320;2023-02-18T02:49:41;3.92;;;2.95;;
25191;SDS011;13143;50.924;5.320;2023-02-18T02:52:31;3.70;;;3.15;;
25191;SDS011;13143;50.924;5.320;2023-02-18T02:55:03;3.22;;;2.45;;
25191;SDS011;13143;50.924;5.320;2023-02-18T03:00:09;3.45;;;3.08;;
25191;SDS011;13143;50.924;5.320;2023-02-18T03:02:46;4.40;;;3.25;;
25191;SDS011;13143;50.924;5.320;2023-02-18T03:18:42;4.95;;;3.33;;
25191;SDS011;13143;50.924;5.320;2023-02-18T03:21:14;5.80;;;3.60;;
25191;SDS011;13143;50.924;5.320;2023-02-18T03:23:44;4.47;;;3.67;;
25191;SDS011;13143;50.924;5.320;2023-02-18T03:26:20;7.85;;;3.65;;
25191;SDS011;13143;50.924;5.320;2023-02-18T03:28:47;8.02;;;3.92;;
25191;SDS011;13143;50.924;5.320;2023-02-18T03:31:16;5.43;;;3.85;;
25191;SDS011;13143;50.924;5.320;2023-02-18T03:33:46;4.78;;;3.70;;
25191;SDS011;13143;50.924;5.320;2023-02-18T03:36:17;5.22;;;3.58;;
25191;SDS011;13143;50.924;5.320;2023-02-18T03:38:53;4.00;;;3.40;;
25191;SDS011;13143;50.924;5.320;2023-02-18T03:41:28;4.78;;;3.28;;
25191;SDS011;13143;50.924;5.320;2023-02-18T03:43:57;7.90;;;3.60;;
25191;SDS011;13143;50.924;5.320;2023-02-18T03:46:26;3.83;;;2.80;;
25191;SDS011;13143;50.924;5.320;2023-02-18T03:48:55;3.58;;;3.05;;
25191;SDS011;13143;50.924;5.320;2023-02-18T03:51:21;3.47;;;2.83;;
25191;SDS011;13143;50.924;5.320;2023-02-18T03:53:46;3.10;;;2.75;;
25191;SDS011;13143;50.924;5.320;2023-02-18T03:56:13;3.25;;;2.65;;
25191;SDS011;13143;50.924;5.320;2023-02-18T03:58:38;3.13;;;2.83;;
25191;SDS011;13143;50.924;5.320;2023-02-18T04:01:04;3.33;;;2.50;;
25191;SDS011;13143;50.924;5.320;2023-02-18T04:03:30;4.07;;;2.63;;
25191;SDS011;13143;50.924;5.320;2023-02-18T04:05:56;3.97;;;2.65;;
25191;SDS011;13143;50.924;5.320;2023-02-18T04:08:21;4.30;;;2.83;;
25191;SDS011;13143;50.924;5.320;2023-02-18T04:10:47;4.35;;;2.88;;
25191;SDS011;13143;50.924;5.320;2023-02-18T04:13:13;3.38;;;2.78;;
25191;SDS011;13143;50.924;5.320;2023-02-18T04:15:38;4.85;;;3.10;;
25191;SDS011;13143;50.924;5.320;2023-02-18T04:18:04;4.15;;;3.20;;
25191;SDS011;13143;50.924;5.320;2023-02-18T04:20:30;4.82;;;3.85;;
25191;SDS011;13143;50.924;5.320;2023-02-18T04:22:56;4.03;;;3.63;;
25191;SDS011;13143;50.924;5.320;2023-02-18T04:25:21;4.85;;;3.70;;
25191;SDS011;13143;50.924;5.320;2023-02-18T04:27:47;5.25;;;4.20;;
25191;SDS011;13143;50.924;5.320;2023-02-18T04:30:12;6.53;;;4.35;;
25191;SDS011;13143;50.924;5.320;2023-02-18T04:32:38;6.60;;;4.63;;
25191;SDS011;13143;50.924;5.320;2023-02-18T04:35:04;7.47;;;4.55;;
25191;SDS011;13143;50.924;5.320;2023-02-18T04:37:30;6.07;;;4.47;;
25191;SDS011;13143;50.924;5.320;2023-02-18T04:39:56;5.80;;;4.45;;
25191;SDS011;13143;50.924;5.320;2023-02-18T04:42:22;6.90;;;4.50;;
25191;SDS011;13143;50.924;5.320;2023-02-18T04:44:47;7.40;;;4.65;;
25191;SDS011;13143;50.924;5.320;2023-02-18T04:47:13;5.07;;;3.75;;
25191;SDS011;13143;50.924;5.320;2023-02-18T04:49:39;5.25;;;4.10;;
25191;SDS011;13143;50.924;5.320;2023-02-18T04:52:05;4.60;;;4.10;;
25191;SDS011;13143;50.924;5.320;2023-02-18T04:54:30;4.40;;;4.00;;
25191;SDS011;13143;50.924;5.320;2023-02-18T04:56:56;4.13;;;3.60;;
25191;SDS011;13143;50.924;5.320;2023-02-18T04:59:21;4.10;;;3.22;;
25191;SDS011;13143;50.924;5.320;2023-02-18T05:01:47;5.10;;;3.47;;
25191;SDS011;13143;50.924;5.320;2023-02-18T05:04:13;6.18;;;3.88;;
25191;SDS011;13143;50.924;5.320;2023-02-18T05:06:38;4.00;;;3.25;;
25191;SDS011;13143;50.924;5.320;2023-02-18T05:09:07;4.07;;;3.67;;
25191;SDS011;13143;50.924;5.320;2023-02-18T05:11:33;4.57;;;3.13;;
25191;SDS011;13143;50.924;5.320;2023-02-18T05:13:58;3.60;;;3.30;;
25191;SDS011;13143;50.924;5.320;2023-02-18T05:16:24;4.63;;;3.60;;
25191;SDS011;13143;50.924;5.320;2023-02-18T05:18:50;3.40;;;3.10;;
25191;SDS011;13143;50.924;5.320;2023-02-18T05:21:15;4.22;;;2.85;;
25191;SDS011;13143;50.924;5.320;2023-02-18T05:23:41;3.03;;;2.78;;
25191;SDS011;13143;50.924;5.320;2023-02-18T05:26:07;3.03;;;2.78;;
25191;SDS011;13143;50.924;5.320;2023-02-18T05:28:32;2.90;;;2.60;;
25191;SDS011;13143;50.924;5.320;2023-02-18T05:30:58;3.97;;;2.83;;
25191;SDS011;13143;50.924;5.320;2023-02-18T05:33:24;3.28;;;2.72;;
25191;SDS011;13143;50.924;5.320;2023-02-18T05:35:50;3.25;;;2.58;;
25191;SDS011;13143;50.924;5.320;2023-02-18T05:38:16;3.30;;;2.80;;
25191;SDS011;13143;50.924;5.320;2023-02-18T05:40:42;3.00;;;2.70;;
25191;SDS011;13143;50.924;5.320;2023-02-18T05:43:07;6.50;;;2.90;;
25191;SDS011;13143;50.924;5.320;2023-02-18T05:45:33;2.80;;;2.30;;
25191;SDS011;13143;50.924;5.320;2023-02-18T05:47:59;4.50;;;2.75;;
25191;SDS011;13143;50.924;5.320;2023-02-18T05:50:25;2.63;;;2.30;;
25191;SDS011;13143;50.924;5.320;2023-02-18T05:52:51;2.55;;;2.35;;
25191;SDS011;13143;50.924;5.320;2023-02-18T05:55:16;3.10;;;2.60;;
25191;SDS011;13143;50.924;5.320;2023-02-18T05:57:42;3.03;;;2.70;;
25191;SDS011;13143;50.924;5.320;2023-02-18T06:00:08;3.20;;;2.70;;
25191;SDS011;13143;50.924;5.320;2023-02-18T06:02:34;2.95;;;2.60;;
25191;SDS011;13143;50.924;5.320;2023-02-18T06:05:01;3.60;;;2.70;;
25191;SDS011;13143;50.924;5.320;2023-02-18T06:07:26;4.63;;;2.92;;
25191;SDS011;13143;50.924;5.320;2023-02-18T06:09:52;2.60;;;2.38;;
25191;SDS011;13143;50.924;5.320;2023-02-18T06:12:18;3.08;;;2.50;;
25191;SDS011;13143;50.924;5.320;2023-02-18T06:14:44;3.13;;;2.60;;
25191;SDS011;13143;50.924;5.320;2023-02-18T06:17:10;2.72;;;2.42;;
25191;SDS011;13143;50.924;5.320;2023-02-18T06:19:37;4.53;;;2.50;;
25191;SDS011;13143;50.924;5.320;2023-02-18T06:22:02;3.15;;;2.70;;
25191;SDS011;13143;50.924;5.320;2023-02-18T06:24:28;2.92;;;2.63;;
25191;SDS011;13143;50.924;5.320;2023-02-18T06:26:54;3.63;;;2.25;;
25191;SDS011;13143;50.924;5.320;2023-02-18T06:29:19;2.88;;;2.20;;
25191;SDS011;13143;50.924;5.320;2023-02-18T06:31:45;3.75;;;2.00;;
25191;SDS011;13143;50.924;5.320;2023-02-18T06:34:11;3.75;;;1.83;;
25191;SDS011;13143;50.924;5.320;2023-02-18T06:36:36;2.78;;;2.00;;
25191;SDS011;13143;50.924;5.320;2023-02-18T06:39:02;2.20;;;1.85;;
25191;SDS011;13143;50.924;5.320;2023-02-18T06:41:29;3.00;;;1.80;;
25191;SDS011;13143;50.924;5.320;2023-02-18T06:43:54;5.47;;;1.70;;
25191;SDS011;13143;50.924;5.320;2023-02-18T06:46:20;4.25;;;1.92;;
25191;SDS011;13143;50.924;5.320;2023-02-18T06:48:46;4.95;;;2.10;;
25191;SDS011;13143;50.924;5.320;2023-02-18T06:51:12;5.13;;;2.28;;
25191;SDS011;13143;50.924;5.320;2023-02-18T06:53:38;5.10;;;2.00;;
25191;SDS011;13143;50.924;5.320;2023-02-18T06:56:04;3.53;;;2.13;;
25191;SDS011;13143;50.924;5.320;2023-02-18T06:58:29;5.32;;;2.30;;
25191;SDS011;13143;50.924;5.320;2023-02-18T07:00:55;6.20;;;2.28;;
25191;SDS011;13143;50.924;5.320;2023-02-18T07:03:21;8.88;;;2.28;;
25191;SDS011;13143;50.924;5.320;2023-02-18T07:05:46;5.32;;;2.50;;
25191;SDS011;13143;50.924;5.320;2023-02-18T07:08:12;8.50;;;2.30;;
25191;SDS011;13143;50.924;5.320;2023-02-18T07:10:38;9.15;;;2.92;;
25191;SDS011;13143;50.924;5.320;2023-02-18T07:13:04;11.02;;;2.53;;
25191;SDS011;13143;50.924;5.320;2023-02-18T07:15:30;11.30;;;2.80;;
25191;SDS011;13143;50.924;5.320;2023-02-18T07:17:56;13.02;;;3.05;;
25191;SDS011;13143;50.924;5.320;2023-02-18T07:20:23;10.43;;;2.92;;
25191;SDS011;13143;50.924;5.320;2023-02-18T07:22:49;12.50;;;2.78;;
25191;SDS011;13143;50.924;5.320;2023-02-18T07:25:15;10.07;;;2.90;;
25191;SDS011;13143;50.924;5.320;2023-02-18T07:27:41;12.10;;;2.90;;
25191;SDS011;13143;50.924;5.320;2023-02-18T07:30:06;11.18;;;2.72;;
25191;SDS011;13143;50.924;5.320;2023-02-18T07:32:33;13.73;;;3.63;;
25191;SDS011;13143;50.924;5.320;2023-02-18T07:34:59;13.13;;;2.90;;
25191;SDS011;13143;50.924;5.320;2023-02-18T07:37:24;15.23;;;3.17;;
25191;SDS011;13143;50.924;5.320;2023-02-18T07:39:50;14.20;;;3.28;;
25191;SDS011;13143;50.924;5.320;2023-02-18T07:42:16;21.23;;;3.33;;
25191;SDS011;13143;50.924;5.320;2023-02-18T07:44:41;12.80;;;3.03;;
25191;SDS011;13143;50.924;5.320;2023-02-18T07:47:08;14.23;;;2.60;;
25191;SDS011;13143;50.924;5.320;2023-02-18T07:49:37;15.50;;;2.97;;
25191;SDS011;13143;50.924;5.320;2023-02-18T07:52:03;14.63;;;2.72;;
25191;SDS011;13143;50.924;5.320;2023-02-18T07:54:28;18.58;;;3.28;;
25191;SDS011;13143;50.924;5.320;2023-02-18T07:56:54;18.98;;;3.33;;
25191;SDS011;13143;50.924;5.320;2023-02-18T07:59:20;19.10;;;3.38;;
25191;SDS011;13143;50.924;5.320;2023-02-18T08:01:45;15.75;;;2.70;;
25191;SDS011;13143;50.924;5.320;2023-02-18T08:04:11;14.82;;;3.08;;
25191;SDS011;13143;50.924;5.320;2023-02-18T08:06:38;16.20;;;3.33;;
25191;SDS011;13143;50.924;5.320;2023-02-18T08:09:05;19.92;;;2.95;;
25191;SDS011;13143;50.924;5.320;2023-02-18T08:11:31;18.88;;;3.13;;
25191;SDS011;13143;50.924;5.320;2023-02-18T08:13:57;19.63;;;3.25;;
25191;SDS011;13143;50.924;5.320;2023-02-18T08:16:23;15.90;;;2.90;;
25191;SDS011;13143;50.924;5.320;2023-02-18T08:18:49;18.73;;;3.42;;
25191;SDS011;13143;50.924;5.320;2023-02-18T08:21:16;19.60;;;2.95;;
25191;SDS011;13143;50.924;5.320;2023-02-18T08:23:43;20.42;;;3.20;;
25191;SDS011;13143;50.924;5.320;2023-02-18T08:26:09;17.75;;;2.78;;
25191;SDS011;13143;50.924;5.320;2023-02-18T08:28:35;16.83;;;2.67;;
25191;SDS011;13143;50.924;5.320;2023-02-18T08:31:01;13.30;;;3.38;;
25191;SDS011;13143;50.924;5.320;2023-02-18T08:33:27;21.52;;;4.07;;
25191;SDS011;13143;50.924;5.320;2023-02-18T08:35:53;17.13;;;3.40;;
25191;SDS011;13143;50.924;5.320;2023-02-18T08:38:20;15.20;;;3.53;;
25191;SDS011;13143;50.924;5.320;2023-02-18T08:40:46;17.13;;;3.05;;
25191;SDS011;13143;50.924;5.320;2023-02-18T08:43:13;13.52;;;3.28;;
25191;SDS011;13143;50.924;5.320;2023-02-18T08:45:39;14.43;;;3.08;;
25191;SDS011;13143;50.924;5.320;2023-02-18T08:48:06;15.88;;;2.83;;
25191;SDS011;13143;50.924;5.320;2023-02-18T08:50:33;17.13;;;2.90;;
25191;SDS011;13143;50.924;5.320;2023-02-18T08:52:59;15.38;;;2.78;;
25191;SDS011;13143;50.924;5.320;2023-02-18T08:55:27;22.50;;;3.17;;
25191;SDS011;13143;50.924;5.320;2023-02-18T08:57:57;21.48;;;3.90;;
25191;SDS011;13143;50.924;5.320;2023-02-18T09:00:22;20.40;;;3.00;;
25191;SDS011;13143;50.924;5.320;2023-02-18T09:02:48;19.65;;;2.90;;
25191;SDS011;13143;50.924;5.320;2023-02-18T09:05:14;17.27;;;3.15;;
25191;SDS011;13143;50.924;5.320;2023-02-18T09:07:40;20.42;;;2.95;;
25191;SDS011;13143;50.924;5.320;2023-02-18T09:10:06;15.50;;;2.55;;
25191;SDS011;13143;50.924;5.320;2023-02-18T09:12:33;18.98;;;3.17;;
25191;SDS011;13143;50.924;5.320;2023-02-18T09:14:59;16.98;;;3.15;;
25191;SDS011;13143;50.924;5.320;2023-02-18T09:17:25;17.85;;;3.10;;
25191;SDS011;13143;50.924;5.320;2023-02-18T09:19:51;13.30;;;2.53;;
25191;SDS011;13143;50.924;5.320;2023-02-18T09:22:17;15.65;;;2.70;;
25191;SDS011;13143;50.924;5.320;2023-02-18T09:24:43;18.77;;;3.10;;
25191;SDS011;13143;50.924;5.320;2023-02-18T09:27:09;16.55;;;3.20;;
25191;SDS011;13143;50.924;5.320;2023-02-18T09:29:36;18.65;;;4.03;;
25191;SDS011;13143;50.924;5.320;2023-02-18T09:32:03;13.63;;;3.03;;
25191;SDS011;13143;50.924;5.320;2023-02-18T09:34:29;16.17;;;3.40;;
25191;SDS011;13143;50.924;5.320;2023-02-18T09:36:55;18.65;;;3.53;;
25191;SDS011;13143;50.924;5.320;2023-02-18T09:39:21;12.85;;;2.67;;
25191;SDS011;13143;50.924;5.320;2023-02-18T09:41:48;16.40;;;2.97;;
25191;SDS011;13143;50.924;5.320;2023-02-18T09:44:19;14.70;;;3.40;;
25191;SDS011;13143;50.924;5.320;2023-02-18T09:46:50;15.18;;;2.78;;
25191;SDS011;13143;50.924;5.320;2023-02-18T09:49:31;17.00;;;2.97;;
25191;SDS011;13143;50.924;5.320;2023-02-18T09:52:19;11.90;;;2.63;;
25191;SDS011;13143;50.924;5.320;2023-02-18T09:54:48;15.50;;;2.80;;
25191;SDS011;13143;50.924;5.320;2023-02-18T09:57:18;14.82;;;2.40;;
25191;SDS011;13143;50.924;5.320;2023-02-18T10:00:04;9.23;;;2.20;;
25191;SDS011;13143;50.924;5.320;2023-02-18T10:02:35;11.52;;;2.63;;
25191;SDS011;13143;50.924;5.320;2023-02-18T10:05:01;12.45;;;2.28;;
25191;SDS011;13143;50.924;5.320;2023-02-18T10:07:29;12.40;;;2.30;;
25191;SDS011;13143;50.924;5.320;2023-02-18T10:09:58;12.95;;;2.65;;
25191;SDS011;13143;50.924;5.320;2023-02-18T10:12:32;11.65;;;2.60;;
25191;SDS011;13143;50.924;5.320;2023-02-18T10:14:59;11.23;;;2.17;;
25191;SDS011;13143;50.924;5.320;2023-02-18T10:17:27;9.50;;;1.98;;
25191;SDS011;13143;50.924;5.320;2023-02-18T10:19:55;11.77;;;2.17;;
25191;SDS011;13143;50.924;5.320;2023-02-18T10:22:23;11.77;;;2.53;;
25191;SDS011;13143;50.924;5.320;2023-02-18T10:24:57;14.73;;;2.65;;
25191;SDS011;13143;50.924;5.320;2023-02-18T10:27:30;10.15;;;2.05;;
25191;SDS011;13143;50.924;5.320;2023-02-18T10:30:09;10.93;;;2.17;;
25191;SDS011;13143;50.924;5.320;2023-02-18T10:32:44;12.25;;;2.58;;
25191;SDS011;13143;50.924;5.320;2023-02-18T10:44:37;16.05;;;2.85;;
25191;SDS011;13143;50.924;5.320;2023-02-18T10:47:26;9.48;;;2.83;;
25191;SDS011;13143;50.924;5.320;2023-02-18T10:50:18;11.40;;;3.00;;
25191;SDS011;13143;50.924;5.320;2023-02-18T10:52:54;8.73;;;2.55;;
25191;SDS011;13143;50.924;5.320;2023-02-18T10:55:33;14.15;;;4.03;;
25191;SDS011;13143;50.924;5.320;2023-02-18T10:58:09;13.30;;;2.95;;
25191;SDS011;13143;50.924;5.320;2023-02-18T11:00:56;14.35;;;3.53;;
25191;SDS011;13143;50.924;5.320;2023-02-18T11:03:23;10.63;;;2.80;;
25191;SDS011;13143;50.924;5.320;2023-02-18T11:05:51;10.60;;;2.60;;
25191;SDS011;13143;50.924;5.320;2023-02-18T11:08:22;9.88;;;3.30;;
25191;SDS011;13143;50.924;5.320;2023-02-18T11:10:50;22.67;;;4.43;;
25191;SDS011;13143;50.924;5.320;2023-02-18T11:13:21;19.27;;;3.30;;
25191;SDS011;13143;50.924;5.320;2023-02-18T11:15:55;13.68;;;4.25;;
25191;SDS011;13143;50.924;5.320;2023-02-18T11:24:16;10.48;;;3.00;;
25191;SDS011;13143;50.924;5.320;2023-02-18T11:26:44;13.30;;;3.50;;
25191;SDS011;13143;50.924;5.320;2023-02-18T11:29:16;14.02;;;3.67;;
25191;SDS011;13143;50.924;5.320;2023-02-18T11:31:48;10.10;;;3.28;;
25191;SDS011;13143;50.924;5.320;2023-02-18T11:34:20;9.73;;;3.55;;
25191;SDS011;13143;50.924;5.320;2023-02-18T11:36:48;12.68;;;4.35;;
25191;SDS011;13143;50.924;5.320;2023-02-18T11:39:20;8.27;;;2.95;;
25191;SDS011;13143;50.924;5.320;2023-02-18T11:41:54;14.63;;;3.17;;
25191;SDS011;13143;50.924;5.320;2023-02-18T11:49:23;13.27;;;3.30;;
25191;SDS011;13143;50.924;5.320;2023-02-18T11:51:49;11.45;;;3.35;;
25191;SDS011;13143;50.924;5.320;2023-02-18T11:54:26;11.05;;;3.42;;
25191;SDS011;13143;50.924;5.320;2023-02-18T11:59:33;11.32;;;3.25;;
25191;SDS011;13143;50.924;5.320;2023-02-18T12:02:05;14.15;;;3.55;;
25191;SDS011;13143;50.924;5.320;2023-02-18T12:04:56;9.77;;;3.90;;
25191;SDS011;13143;50.924;5.320;2023-02-18T12:07:40;16.38;;;4.03;;
25191;SDS011;13143;50.924;5.320;2023-02-18T12:18:40;18.00;;;4.88;;
25191;SDS011;13143;50.924;5.320;2023-02-18T12:21:35;27.35;;;6.10;;
25191;SDS011;13143;50.924;5.320;2023-02-18T12:27:40;15.00;;;4.75;;
25191;SDS011;13143;50.924;5.320;2023-02-18T12:30:25;20.58;;;4.78;;
25191;SDS011;13143;50.924;5.320;2023-02-18T12:41:32;18.83;;;4.57;;
25191;SDS011;13143;50.924;5.320;2023-02-18T12:52:38;20.55;;;5.53;;
25191;SDS011;13143;50.924;5.320;2023-02-18T13:14:12;14.20;;;4.45;;
25191;SDS011;13143;50.924;5.320;2023-02-18T13:16:52;16.77;;;4.82;;
25191;SDS011;13143;50.924;5.320;2023-02-18T13:21:49;21.75;;;5.35;;
25191;SDS011;13143;50.924;5.320;2023-02-18T13:24:30;13.60;;;4.78;;
25191;SDS011;13143;50.924;5.320;2023-02-18T13:27:07;19.23;;;4.78;;
25191;SDS011;13143;50.924;5.320;2023-02-18T13:30:40;23.17;;;4.95;;
25191;SDS011;13143;50.924;5.320;2023-02-18T13:32:38;14.85;;;4.10;;
25191;SDS011;13143;50.924;5.320;2023-02-18T13:40:31;21.80;;;4.47;;
25191;SDS011;13143;50.924;5.320;2023-02-18T13:46:20;23.95;;;5.07;;
25191;SDS011;13143;50.924;5.320;2023-02-18T13:51:31;20.05;;;4.60;;
25191;SDS011;13143;50.924;5.320;2023-02-18T13:54:02;20.35;;;4.72;;
25191;SDS011;13143;50.924;5.320;2023-02-18T13:56:30;16.17;;;4.50;;
25191;SDS011;13143;50.924;5.320;2023-02-18T13:59:14;18.73;;;4.35;;
25191;SDS011;13143;50.924;5.320;2023-02-18T14:09:46;16.63;;;4.88;;
25191;SDS011;13143;50.924;5.320;2023-02-18T14:17:47;19.00;;;4.57;;
25191;SDS011;13143;50.924;5.320;2023-02-18T14:20:26;17.35;;;4.75;;
25191;SDS011;13143;50.924;5.320;2023-02-18T14:22:55;24.67;;;5.53;;
25191;SDS011;13143;50.924;5.320;2023-02-18T14:25:34;16.80;;;4.80;;
25191;SDS011;13143;50.924;5.320;2023-02-18T14:33:36;18.85;;;4.93;;
25191;SDS011;13143;50.924;5.320;2023-02-18T14:44:20;14.18;;;5.43;;
25191;SDS011;13143;50.924;5.320;2023-02-18T14:50:16;10.00;;;4.28;;
25191;SDS011;13143;50.924;5.320;2023-02-18T15:01:07;13.18;;;4.60;;
25191;SDS011;13143;50.924;5.320;2023-02-18T15:03:48;24.17;;;7.78;;
25191;SDS011;13143;50.924;5.320;2023-02-18T15:06:21;16.42;;;6.30;;
25191;SDS011;13143;50.924;5.320;2023-02-18T15:08:48;16.08;;;5.75;;
25191;SDS011;13143;50.924;5.320;2023-02-18T15:11:13;14.45;;;5.15;;
25191;SDS011;13143;50.924;5.320;2023-02-18T15:13:41;12.45;;;5.25;;
25191;SDS011;13143;50.924;5.320;2023-02-18T15:16:08;15.02;;;4.95;;
25191;SDS011;13143;50.924;5.320;2023-02-18T15:18:41;14.45;;;5.20;;
25191;SDS011;13143;50.924;5.320;2023-02-18T15:21:15;13.90;;;5.55;;
25191;SDS011;13143;50.924;5.320;2023-02-18T15:23:48;13.43;;;4.90;;
25191;SDS011;13143;50.924;5.320;2023-02-18T15:26:15;18.23;;;4.93;;
25191;SDS011;13143;50.924;5.320;2023-02-18T15:28:50;12.90;;;5.53;;
25191;SDS011;13143;50.924;5.320;2023-02-18T15:31:25;12.88;;;5.15;;
25191;SDS011;13143;50.924;5.320;2023-02-18T15:33:55;13.00;;;5.32;;
25191;SDS011;13143;50.924;5.320;2023-02-18T15:36:24;12.00;;;5.60;;
25191;SDS011;13143;50.924;5.320;2023-02-18T15:38:50;14.85;;;5.20;;
25191;SDS011;13143;50.924;5.320;2023-02-18T15:41:17;15.10;;;5.70;;
25191;SDS011;13143;50.924;5.320;2023-02-18T15:43:54;12.70;;;6.00;;
25191;SDS011;13143;50.924;5.320;2023-02-18T15:46:23;13.40;;;4.93;;
25191;SDS011;13143;50.924;5.320;2023-02-18T15:48:50;19.27;;;5.05;;
25191;SDS011;13143;50.924;5.320;2023-02-18T15:51:19;21.83;;;5.43;;
25191;SDS011;13143;50.924;5.320;2023-02-18T15:53:48;19.02;;;4.78;;
25191;SDS011;13143;50.924;5.320;2023-02-18T15:59:17;16.40;;;4.30;;
25191;SDS011;13143;50.924;5.320;2023-02-18T16:04:32;12.07;;;3.83;;
25191;SDS011;13143;50.924;5.320;2023-02-18T16:07:04;9.10;;;3.60;;
25191;SDS011;13143;50.924;5.320;2023-02-18T16:09:44;16.00;;;4.60;;
25191;SDS011;13143;50.924;5.320;2023-02-18T16:12:15;9.38;;;3.88;;
25191;SDS011;13143;50.924;5.320;2023-02-18T16:14:52;15.32;;;4.32;;
25191;SDS011;13143;50.924;5.320;2023-02-18T16:17:19;18.02;;;4.97;;
25191;SDS011;13143;50.924;5.320;2023-02-18T16:22:26;15.57;;;4.43;;
25191;SDS011;13143;50.924;5.320;2023-02-18T16:27:46;14.50;;;4.63;;
25191;SDS011;13143;50.924;5.320;2023-02-18T16:30:15;15.75;;;4.40;;
25191;SDS011;13143;50.924;5.320;2023-02-18T16:32:52;10.40;;;3.80;;
25191;SDS011;13143;50.924;5.320;2023-02-18T16:35:19;23.05;;;4.75;;
25191;SDS011;13143;50.924;5.320;2023-02-18T16:37:46;13.70;;;4.22;;
25191;SDS011;13143;50.924;5.320;2023-02-18T16:40:33;10.10;;;3.53;;
25191;SDS011;13143;50.924;5.320;2023-02-18T16:43:15;12.85;;;4.10;;
25191;SDS011;13143;50.924;5.320;2023-02-18T16:50:59;10.30;;;3.50;;
25191;SDS011;13143;50.924;5.320;2023-02-18T16:53:49;11.90;;;3.58;;
25191;SDS011;13143;50.924;5.320;2023-02-18T16:56:19;13.55;;;3.45;;
25191;SDS011;13143;50.924;5.320;2023-02-18T16:58:47;23.30;;;3.75;;
25191;SDS011;13143;50.924;5.320;2023-02-18T17:01:22;10.90;;;3.28;;
25191;SDS011;13143;50.924;5.320;2023-02-18T17:03:53;14.95;;;4.18;;
25191;SDS011;13143;50.924;5.320;2023-02-18T17:06:19;9.43;;;3.75;;
25191;SDS011;13143;50.924;5.320;2023-02-18T17:08:45;13.50;;;4.15;;
25191;SDS011;13143;50.924;5.320;2023-02-18T17:11:14;10.57;;;3.75;;
25191;SDS011;13143;50.924;5.320;2023-02-18T17:13:44;10.50;;;3.95;;
25191;SDS011;13143;50.924;5.320;2023-02-18T17:16:11;17.10;;;4.13;;
25191;SDS011;13143;50.924;5.320;2023-02-18T17:18:37;12.13;;;3.70;;
25191;SDS011;13143;50.924;5.320;2023-02-18T17:21:02;13.82;;;4.70;;
25191;SDS011;13143;50.924;5.320;2023-02-18T17:23:28;10.35;;;3.83;;
25191;SDS011;13143;50.924;5.320;2023-02-18T17:25:54;11.48;;;4.28;;
25191;SDS011;13143;50.924;5.320;2023-02-18T17:28:20;12.55;;;4.47;;
25191;SDS011;13143;50.924;5.320;2023-02-18T17:30:46;12.05;;;4.70;;
25191;SDS011;13143;50.924;5.320;2023-02-18T17:33:17;11.38;;;5.55;;
25191;SDS011;13143;50.924;5.320;2023-02-18T17:35:43;13.65;;;5.47;;
25191;SDS011;13143;50.924;5.320;2023-02-18T17:38:10;16.95;;;8.20;;
25191;SDS011;13143;50.924;5.320;2023-02-18T17:40:37;15.68;;;8.25;;
25191;SDS011;13143;50.924;5.320;2023-02-18T17:43:03;11.88;;;8.40;;
25191;SDS011;13143;50.924;5.320;2023-02-18T17:45:36;15.13;;;8.90;;
25191;SDS011;13143;50.924;5.320;2023-02-18T17:48:07;23.25;;;8.93;;